Time;durP1;ratioP1;P1;durP2;ratioP2;P2;SDS_P1;SDS_P2;PMS_P1;PMS_P2;Temp;Humidity;BMP_temperature;BMP_pressure;BME280_temperature;BME280_humidity;BME280_pressure;Samples;Min_cycle;Max_cycle;Signal;HPM_P1;HPM_P2
2023/12/13 00:01:03;;;;;;;19.80;14.05;;;;;;;1.87;100.00;96512.91;1223871;75;2935923;-67
2023/12/13 00:03:37;;;;;;;16.85;12.90;;;;;;;2.09;100.00;96515.53;1224177;75;2915079;-67
2023/12/13 00:06:10;;;;;;;15.45;10.50;;;;;;;2.18;100.00;96520.19;1223267;75;2924967;-69
2023/12/13 00:08:43;;;;;;;13.65;9.80;;;;;;;2.30;100.00;96530.13;1223892;75;2913518;-70
2023/12/13 00:11:18;;;;;;;11.20;8.50;;;;;;;2.33;100.00;96528.47;1224683;75;2918501;-67
2023/12/13 00:13:51;;;;;;;12.75;8.70;;;;;;;2.33;100.00;96515.75;1223813;75;2917348;-69
2023/12/13 00:16:24;;;;;;;10.70;7.50;;;;;;;2.37;100.00;96502.06;1224677;75;2919447;-68
2023/12/13 00:18:57;;;;;;;11.50;9.00;;;;;;;2.12;100.00;96493.03;1224463;75;2916194;-69
2023/12/13 00:21:30;;;;;;;11.65;8.45;;;;;;;2.24;100.00;96474.47;1223936;75;2922983;-67
2023/12/13 00:24:02;;;;;;;11.05;8.00;;;;;;;2.26;100.00;96463.94;1223717;75;2917663;-68
2023/12/13 00:26:38;;;;;;;12.40;9.15;;;;;;;2.16;100.00;96468.59;1224295;75;2920913;-69
2023/12/13 00:29:12;;;;;;;13.65;10.15;;;;;;;2.28;100.00;96465.00;1224485;75;2921260;-68
2023/12/13 00:31:44;;;;;;;13.95;9.25;;;;;;;2.26;100.00;96472.81;1223964;75;2924972;-63
2023/12/13 00:34:17;;;;;;;17.10;12.15;;;;;;;2.03;100.00;96486.88;1223748;75;2933565;-69
2023/12/13 00:36:50;;;;;;;19.15;13.80;;;;;;;2.07;100.00;96474.00;1223707;75;2920853;-69
2023/12/13 00:39:23;;;;;;;22.05;14.50;;;;;;;1.94;100.00;96479.50;1224355;75;2913658;-67
2023/12/13 00:41:58;;;;;;;18.40;13.50;;;;;;;2.07;100.00;96469.34;1223981;75;2917868;-69
2023/12/13 00:44:31;;;;;;;17.70;12.80;;;;;;;2.05;100.00;96465.59;1224860;75;2920678;-70
2023/12/13 00:47:04;;;;;;;17.75;12.30;;;;;;;1.97;100.00;96457.00;1224790;75;2914883;-69
2023/12/13 00:49:37;;;;;;;16.80;11.50;;;;;;;2.02;100.00;96453.75;1224759;75;2918961;-65
2023/12/13 00:52:10;;;;;;;15.55;10.70;;;;;;;2.08;100.00;96443.84;1224001;75;2917909;-69
2023/12/13 00:54:42;;;;;;;14.55;10.75;;;;;;;2.05;100.00;96447.44;1224027;75;2916472;-71
2023/12/13 00:57:18;;;;;;;13.40;10.10;;;;;;;2.26;100.00;96442.34;1224533;75;2919220;-66
2023/12/13 00:59:51;;;;;;;15.05;10.15;;;;;;;2.20;100.00;96431.41;1224371;75;2927726;-68
2023/12/13 01:02:24;;;;;;;11.35;8.60;;;;;;;2.23;100.00;96421.66;1224485;75;2920024;-69
2023/12/13 01:04:56;;;;;;;14.00;8.55;;;;;;;2.26;100.00;96426.91;1224398;67;2927245;-69
2023/12/13 01:07:29;;;;;;;11.60;7.80;;;;;;;2.35;100.00;96426.16;1222821;75;2945210;-68
2023/12/13 01:10:02;;;;;;;11.60;8.15;;;;;;;2.29;100.00;96422.56;1224361;75;2924359;-73
2023/12/13 01:12:38;;;;;;;11.70;8.95;;;;;;;2.10;100.00;96435.31;1223222;75;2916709;-69
2023/12/13 01:15:12;;;;;;;23.95;15.00;;;;;;;1.68;100.00;96444.69;1223744;75;2922105;-65
2023/12/13 01:17:44;;;;;;;21.55;14.25;;;;;;;1.61;100.00;96466.53;1224216;75;2911592;-68
2023/12/13 01:20:17;;;;;;;26.45;19.40;;;;;;;1.19;100.00;96469.66;1224590;75;2929266;-68
2023/12/13 01:22:50;;;;;;;29.85;21.20;;;;;;;1.28;100.00;96461.63;1222450;75;2944852;-68
2023/12/13 01:25:23;;;;;;;30.15;23.05;;;;;;;1.10;100.00;96450.00;1224107;75;2931486;-71
2023/12/13 01:27:58;;;;;;;30.10;23.05;;;;;;;1.20;100.00;96449.59;1224618;75;2932434;-71
2023/12/13 01:30:31;;;;;;;32.45;22.20;;;;;;;1.10;100.00;96444.59;1224101;75;2918863;-66
2023/12/13 01:33:04;;;;;;;27.15;20.10;;;;;;;1.49;100.00;96454.66;1224052;75;2923826;-68
2023/12/13 01:35:37;;;;;;;22.25;17.20;;;;;;;1.58;100.00;96455.88;1224624;75;2919018;-69
2023/12/13 01:38:09;;;;;;;23.40;17.30;;;;;;;1.58;100.00;96442.41;1223660;75;2925546;-71
2023/12/13 01:40:52;;;;;;;27.80;19.90;;;;;;;1.48;100.00;96452.41;1224410;75;2919551;-68
2023/12/13 01:43:28;;;;;;;25.80;20.10;;;;;;;1.32;100.00;96455.31;1224024;75;2920098;-68
2023/12/13 01:46:02;;;;;;;21.55;16.95;;;;;;;1.53;100.00;96451.81;1224754;75;2923444;-72
2023/12/13 01:48:35;;;;;;;20.60;16.00;;;;;;;1.44;100.00;96439.06;1224325;75;2925104;-68
2023/12/13 01:51:08;;;;;;;21.35;16.15;;;;;;;1.41;100.00;96434.53;1225010;75;2923335;-71
2023/12/13 01:53:43;;;;;;;17.40;14.25;;;;;;;1.60;100.00;96419.16;1222723;75;2945911;-68
2023/12/13 01:56:17;;;;;;;17.10;12.90;;;;;;;1.73;100.00;96410.94;1224774;75;2926292;-68
2023/12/13 01:58:52;;;;;;;14.55;11.20;;;;;;;1.85;100.00;96412.78;1224044;75;2920444;-66
2023/12/13 02:01:25;;;;;;;13.65;10.20;;;;;;;1.94;100.00;96416.69;1224743;75;2934007;-71
2023/12/13 02:03:58;;;;;;;12.50;9.85;;;;;;;1.97;100.00;96423.88;1224667;75;2918878;-69
2023/12/13 02:06:31;;;;;;;15.00;11.10;;;;;;;1.78;100.00;96417.69;1223797;75;2927956;-69
2023/12/13 02:09:04;;;;;;;13.80;10.00;;;;;;;1.94;100.00;96414.72;1224193;75;2930265;-70
2023/12/13 02:11:37;;;;;;;12.05;9.45;;;;;;;1.85;100.00;96412.78;1224849;75;2920581;-70
2023/12/13 02:14:12;;;;;;;17.85;13.80;;;;;;;1.57;100.00;96408.53;1223082;75;2928539;-72
2023/12/13 02:16:45;;;;;;;24.40;17.50;;;;;;;1.52;100.00;96414.53;1224538;75;2920657;-70
2023/12/13 02:19:18;;;;;;;19.90;14.90;;;;;;;1.83;100.00;96419.84;1222521;75;2924608;-68
2023/12/13 02:21:51;;;;;;;17.65;12.55;;;;;;;1.87;100.00;96420.41;1223700;75;2921017;-72
2023/12/13 02:24:27;;;;;;;16.15;11.70;;;;;;;2.00;100.00;96417.59;1224482;75;2919495;-69
2023/12/13 02:27:00;;;;;;;13.00;10.35;;;;;;;2.07;100.00;96420.00;1223574;75;2922614;-68
2023/12/13 02:29:33;;;;;;;11.05;9.10;;;;;;;2.10;100.00;96421.81;1224116;75;2924456;-70
2023/12/13 02:32:06;;;;;;;12.90;10.45;;;;;;;1.89;100.00;96413.38;1223855;75;2921404;-68
2023/12/13 02:34:40;;;;;;;11.80;9.80;;;;;;;2.03;100.00;96403.94;1223309;75;2923706;-70
2023/12/13 02:37:13;;;;;;;12.65;9.05;;;;;;;2.11;100.00;96399.75;1224464;75;2928095;-69
2023/12/13 02:39:48;;;;;;;14.25;11.05;;;;;;;1.94;100.00;96390.44;1223771;75;2959659;-71
2023/12/13 02:42:21;;;;;;;14.95;11.10;;;;;;;2.00;100.00;96399.47;1223700;75;2924414;-68
2023/12/13 02:44:54;;;;;;;13.70;10.00;;;;;;;2.05;100.00;96387.31;1223852;75;2931280;-68
2023/12/13 02:47:28;;;;;;;12.75;9.00;;;;;;;2.15;100.00;96388.81;1224454;75;2922542;-69
2023/12/13 02:50:01;;;;;;;10.75;8.35;;;;;;;2.20;100.00;96390.16;1223964;75;2926896;-69
2023/12/13 02:52:34;;;;;;;10.95;8.20;;;;;;;2.17;100.00;96382.97;1223759;75;2926552;-69
2023/12/13 02:55:12;;;;;;;10.00;7.60;;;;;;;2.19;100.00;96370.53;1224728;75;2916969;-70
2023/12/13 02:57:45;;;;;;;;;;;;;;;2.26;100.00;96366.75;1225312;75;2919756;-69
2023/12/13 03:00:18;;;;;;;9.80;7.05;;;;;;;2.26;100.00;96361.34;1224703;75;2920060;-68
2023/12/13 03:02:51;;;;;;;8.50;6.80;;;;;;;2.26;100.00;96362.13;1223856;75;2926428;-67
2023/12/13 03:05:24;;;;;;;9.00;6.80;;;;;;;2.20;100.00;96357.75;1223617;75;2915544;-69
2023/12/13 03:07:56;;;;;;;10.00;7.90;;;;;;;2.20;100.00;96358.50;1224484;75;2920226;-69
2023/12/13 03:10:32;;;;;;;11.70;7.85;;;;;;;2.28;100.00;96365.09;1223391;75;2930711;-65
2023/12/13 03:13:05;;;;;;;8.50;6.85;;;;;;;2.33;100.00;96369.13;1223605;75;2923247;-69
2023/12/13 03:15:38;;;;;;;9.00;7.10;;;;;;;2.33;100.00;96374.53;1223741;75;2918635;-67
2023/12/13 03:18:11;;;;;;;10.30;7.80;;;;;;;2.38;100.00;96373.19;1221378;75;2980564;-71
2023/12/13 03:20:44;;;;;;;8.95;6.60;;;;;;;2.35;100.00;96370.19;1224581;75;2916381;-67
2023/12/13 03:23:16;;;;;;;9.75;6.20;;;;;;;2.44;100.00;96374.84;1223794;75;2923498;-70
2023/12/13 03:25:52;;;;;;;9.90;7.15;;;;;;;2.25;100.00;96378.75;1223471;75;2916082;-67
2023/12/13 03:28:25;;;;;;;13.80;9.05;;;;;;;2.28;100.00;96384.00;1224452;67;2923181;-68
2023/12/13 03:30:58;;;;;;;13.70;9.30;;;;;;;2.34;100.00;96386.84;1224001;75;2918905;-68
2023/12/13 03:33:31;;;;;;;10.45;8.90;;;;;;;2.43;100.00;96396.88;1224096;75;2915603;-68
2023/12/13 03:36:03;;;;;;;12.95;9.35;;;;;;;2.35;100.00;96397.19;1223699;75;2924292;-66
2023/12/13 03:38:37;;;;;;;16.30;13.15;;;;;;;1.92;100.00;96393.59;1223506;75;2925570;-71
2023/12/13 03:41:12;;;;;;;21.00;15.35;;;;;;;1.82;100.00;96402.13;1222784;75;2931374;-66
2023/12/13 03:43:45;;;;;;;19.75;16.00;;;;;;;1.81;100.00;96395.25;1222733;75;2934405;-70
2023/12/13 03:46:18;;;;;;;21.65;15.65;;;;;;;1.77;100.00;96394.63;1223399;75;2927206;-68
2023/12/13 03:48:51;;;;;;;19.90;14.15;;;;;;;1.96;100.00;96398.84;1223162;75;2928799;-70
2023/12/13 03:51:24;;;;;;;21.00;14.25;;;;;;;1.82;100.00;96400.19;1223690;75;2919541;-69
2023/12/13 03:53:56;;;;;;;21.25;14.90;;;;;;;1.90;100.00;96397.94;1223162;75;2917812;-68
2023/12/13 03:56:32;;;;;;;18.45;13.75;;;;;;;1.92;100.00;96382.03;1222948;75;2927311;-68
2023/12/13 03:59:05;;;;;;;17.30;13.60;;;;;;;2.01;100.00;96376.66;1221888;75;2922394;-70
2023/12/13 04:01:38;;;;;;;16.50;13.65;;;;;;;2.03;100.00;96368.88;1221898;75;2936732;-67
2023/12/13 04:04:11;;;;;;;19.60;14.95;;;;;;;1.93;100.00;96364.66;1221705;75;2945383;-68
2023/12/13 04:06:43;;;;;;;22.70;16.55;;;;;;;1.87;100.00;96347.56;1223273;75;2921612;-69
2023/12/13 04:09:16;;;;;;;25.50;18.05;;;;;;;1.67;100.00;96334.53;1223941;75;2920329;-68
2023/12/13 04:11:52;;;;;;;24.00;17.30;;;;;;;1.77;100.00;96319.09;1218169;75;2924404;-70
2023/12/13 04:14:25;;;;;;;23.55;17.55;;;;;;;1.66;100.00;96309.50;1221891;75;2924980;-68
2023/12/13 04:16:58;;;;;;;19.80;14.75;;;;;;;1.82;100.00;96331.97;1223747;75;2844611;-69
2023/12/13 04:19:31;;;;;;;20.15;14.80;;;;;;;2.03;100.00;96327.63;1221226;75;2927951;-69
2023/12/13 04:22:04;;;;;;;16.95;12.95;;;;;;;2.08;100.00;96324.31;1221769;75;2927944;-66
2023/12/13 04:24:37;;;;;;;15.05;11.95;;;;;;;2.02;100.00;96324.19;1220907;75;2876451;-71
2023/12/13 04:27:13;;;;;;;15.40;12.50;;;;;;;1.91;100.00;96331.97;1220611;75;2929235;-69
2023/12/13 04:29:46;;;;;;;19.60;15.15;;;;;;;1.78;100.00;96325.97;1220089;75;2981091;-68
2023/12/13 04:32:19;;;;;;;21.85;16.40;;;;;;;1.89;100.00;96326.28;1222739;75;2924646;-69
2023/12/13 04:34:52;;;;;;;16.75;13.10;;;;;;;1.95;100.00;96316.41;1220668;75;2921400;-69
2023/12/13 04:37:25;;;;;;;14.40;11.05;;;;;;;2.03;100.00;96333.78;1184825;75;5831749;-67
2023/12/13 04:39:58;;;;;;;22.40;15.95;;;;;;;1.77;100.00;96330.63;1223354;75;2923853;-68
2023/12/13 04:42:34;;;;;;;24.40;18.00;;;;;;;1.64;100.00;96344.25;1223179;75;2879572;-71
2023/12/13 04:45:09;;;;;;;24.95;16.90;;;;;;;1.81;100.00;96330.50;1223431;75;2919260;-69
2023/12/13 04:47:42;;;;;;;19.65;15.15;;;;;;;1.92;100.00;96363.94;1223524;75;2941231;-70
2023/12/13 04:50:14;;;;;;;25.55;17.05;;;;;;;1.94;100.00;96325.69;1221926;75;2921935;-69
2023/12/13 04:52:47;;;;;;;18.90;14.30;;;;;;;1.95;100.00;96335.28;1223395;75;2915819;-66
2023/12/13 04:55:20;;;;;;;22.60;16.75;;;;;;;1.94;100.00;96328.38;1221402;75;2921228;-69
2023/12/13 04:57:56;;;;;;;16.65;13.50;;;;;;;2.10;100.00;96341.56;1223174;75;2920563;-69
2023/12/13 05:00:33;;;;;;;17.30;13.30;;;;;;;1.95;100.00;96334.50;1222002;75;2922145;-67
2023/12/13 05:03:06;;;;;;;19.45;15.25;;;;;;;1.76;100.00;96339.19;1224117;75;2919863;-70
2023/12/13 05:05:39;;;;;;;25.90;17.75;;;;;;;1.70;100.00;96345.16;1222681;75;2926791;-73
2023/12/13 05:08:13;;;;;;;23.85;17.70;;;;;;;1.76;100.00;96353.41;1224168;75;2924336;-70
2023/12/13 05:10:46;;;;;;;27.35;18.15;;;;;;;1.61;100.00;96325.50;1224667;75;2916783;-70
2023/12/13 05:13:21;;;;;;;22.45;17.15;;;;;;;1.87;100.00;96334.06;1223610;75;2922251;-69
2023/12/13 05:15:54;;;;;;;23.50;17.40;;;;;;;1.82;100.00;96335.41;1223909;75;2928827;-68
2023/12/13 05:18:27;;;;;;;32.65;23.45;;;;;;;1.82;100.00;96321.94;1224905;75;2917976;-66
2023/12/13 05:21:01;;;;;;;30.30;21.85;;;;;;;1.82;100.00;96321.19;1223008;75;2924224;-68
2023/12/13 05:23:34;;;;;;;29.05;20.10;;;;;;;1.89;100.00;96327.03;1222561;75;2934608;-69
2023/12/13 05:26:07;;;;;;;21.60;16.70;;;;;;;2.11;100.00;96326.13;1224528;75;2919630;-70
2023/12/13 05:28:43;;;;;;;20.30;16.95;;;;;;;2.06;100.00;96313.97;1222883;75;2925405;-71
2023/12/13 05:31:22;;;;;;;20.85;15.45;;;;;;;2.04;100.00;96327.16;1223635;75;2942289;-70
2023/12/13 05:33:55;;;;;;;24.80;17.80;;;;;;;1.94;100.00;96341.13;1223672;75;2917715;-70
2023/12/13 05:36:28;;;;;;;18.60;15.00;;;;;;;2.11;100.00;96337.66;1224471;75;2933123;-68
2023/12/13 05:39:01;;;;;;;14.90;12.15;;;;;;;2.17;100.00;96340.53;1223679;75;2926136;-68
2023/12/13 05:41:34;;;;;;;18.00;13.50;;;;;;;2.11;100.00;96342.31;1223579;75;2928419;-70
2023/12/13 05:44:09;;;;;;;17.95;14.70;;;;;;;1.86;100.00;96340.69;1223521;75;2919412;-69
2023/12/13 05:46:42;;;;;;;18.60;14.60;;;;;;;2.17;100.00;96339.78;1223701;75;2921032;-69
2023/12/13 05:49:15;;;;;;;15.55;12.40;;;;;;;2.30;100.00;96343.78;1224153;75;2921379;-67
2023/12/13 05:51:48;;;;;;;13.10;10.30;;;;;;;2.36;100.00;96330.44;1223527;75;2926733;-69
2023/12/13 05:54:21;;;;;;;11.35;9.35;;;;;;;2.40;100.00;96325.63;1222727;75;2936010;-66
2023/12/13 05:56:54;;;;;;;10.45;9.10;;;;;;;2.40;100.00;96330.28;1223939;75;2920500;-70
2023/12/13 05:59:29;;;;;;;10.30;8.10;;;;;;;2.45;100.00;96335.81;1222631;75;2923865;-68
2023/12/13 06:02:02;;;;;;;8.30;6.90;;;;;;;2.47;100.00;96335.38;1222433;75;2923940;-69
2023/12/13 06:04:35;;;;;;;8.20;6.70;;;;;;;2.46;100.00;96341.97;1223184;75;2897159;-70
2023/12/13 06:07:08;;;;;;;7.50;6.60;;;;;;;2.52;100.00;96345.56;1223131;75;2930325;-67
2023/12/13 06:09:44;;;;;;;7.70;6.45;;;;;;;2.53;100.00;96342.41;1222843;75;2922482;-69
2023/12/13 06:12:17;;;;;;;10.60;7.95;;;;;;;2.42;100.00;96338.69;1222999;75;2919691;-68
2023/12/13 06:14:53;;;;;;;7.75;6.25;;;;;;;2.58;100.00;96345.72;1223434;75;2922373;-68
2023/12/13 06:17:25;;;;;;;7.95;6.15;;;;;;;2.55;100.00;96340.00;1207251;75;4105784;-71
2023/12/13 06:19:58;;;;;;;8.25;6.45;;;;;;;2.59;100.00;96339.09;1193904;75;5150520;-71
2023/12/13 06:22:32;;;;;;;7.20;5.55;;;;;;;2.56;100.00;96344.19;1221908;75;2923198;-72
2023/12/13 06:25:05;;;;;;;8.30;5.90;;;;;;;2.59;100.00;96347.19;1223244;75;2934769;-67
2023/12/13 06:27:38;;;;;;;7.70;5.55;;;;;;;2.56;100.00;96336.09;1222862;75;2932921;-67
2023/12/13 06:30:18;;;;;;;7.60;5.85;;;;;;;2.56;100.00;96332.66;1223184;75;2919437;-71
2023/12/13 06:32:50;;;;;;;8.05;5.70;;;;;;;2.60;100.00;96335.19;1223542;75;2926842;-70
2023/12/13 06:35:23;;;;;;;7.25;6.15;;;;;;;2.63;100.00;96343.13;1223691;75;2918591;-70
2023/12/13 06:37:58;;;;;;;7.85;5.70;;;;;;;2.63;100.00;96331.59;1223881;75;2921347;-71
2023/12/13 06:40:31;;;;;;;7.25;5.70;;;;;;;2.64;100.00;96339.22;1223506;75;2920308;-71
2023/12/13 06:43:05;;;;;;;7.35;6.00;;;;;;;2.64;100.00;96344.63;1221968;75;2917379;-65
2023/12/13 06:45:40;;;;;;;11.05;8.10;;;;;;;2.38;100.00;96335.38;1223925;75;2920299;-68
2023/12/13 06:48:15;;;;;;;12.05;8.85;;;;;;;2.53;100.00;96326.19;1223364;75;2924120;-74
2023/12/13 06:50:48;;;;;;;10.35;7.90;;;;;;;2.64;100.00;96324.97;1222922;75;2931261;-69
2023/12/13 06:53:18;;;;;;;9.55;8.00;;;;;;;2.70;100.00;96323.16;1223436;75;2920097;-71
2023/12/13 06:55:52;;;;;;;10.75;7.90;;;;;;;2.63;100.00;96326.19;1222165;75;2950950;-67
2023/12/13 06:58:25;;;;;;;12.00;9.75;;;;;;;2.54;100.00;96319.59;1222447;75;2914039;-69
2023/12/13 07:01:00;;;;;;;11.70;9.00;;;;;;;2.63;100.00;96318.81;1221294;75;2945378;-70
2023/12/13 07:03:33;;;;;;;12.25;8.90;;;;;;;2.44;100.00;96339.72;1222644;75;2900114;-67
2023/12/13 07:06:08;;;;;;;19.55;16.05;;;;;;;2.30;100.00;96337.66;1223565;75;2920447;-70
2023/12/13 07:08:41;;;;;;;17.60;14.85;;;;;;;2.40;100.00;96332.97;1222273;75;2921530;-70
2023/12/13 07:11:14;;;;;;;16.30;12.70;;;;;;;2.61;100.00;96320.47;1223853;75;2919726;-69
2023/12/13 07:13:51;;;;;;;14.20;10.70;;;;;;;2.60;100.00;96314.34;1222474;75;2921922;-67
2023/12/13 07:16:27;;;;;;;12.10;9.75;;;;;;;2.71;100.00;96309.16;1222833;75;2929921;-70
2023/12/13 07:19:00;;;;;;;11.85;9.20;;;;;;;2.61;100.00;96309.66;1221510;75;2940528;-70
2023/12/13 07:21:33;;;;;;;11.45;8.50;;;;;;;2.71;100.00;96316.53;1221029;75;2924574;-68
2023/12/13 07:24:08;;;;;;;9.35;7.75;;;;;;;2.79;100.00;96317.72;1222487;75;2922797;-73
2023/12/13 07:26:41;;;;;;;8.90;7.00;;;;;;;2.83;100.00;96315.59;1223171;75;2934400;-70
2023/12/13 07:29:15;;;;;;;8.35;6.25;;;;;;;2.77;100.00;96310.06;1221414;75;2922512;-69
2023/12/13 07:31:51;;;;;;;8.25;6.30;;;;;;;2.78;100.00;96298.03;1222297;75;2920178;-70
2023/12/13 07:34:24;;;;;;;9.10;7.15;;;;;;;2.76;100.00;96281.53;1222280;75;2973164;-69
2023/12/13 07:36:57;;;;;;;8.20;6.30;;;;;;;2.85;100.00;96293.53;1222992;75;2918468;-70
2023/12/13 07:39:30;;;;;;;7.80;6.35;;;;;;;2.75;100.00;96301.66;1221917;75;2940985;-67
2023/12/13 07:42:03;;;;;;;8.70;6.20;;;;;;;2.85;100.00;96296.97;1221757;75;2924490;-72
2023/12/13 07:44:37;;;;;;;7.00;5.60;;;;;;;2.87;100.00;96291.84;1216655;75;3050696;-69
2023/12/13 07:47:14;;;;;;;7.00;5.35;;;;;;;2.97;100.00;96301.41;1223022;75;2918470;-71
2023/12/13 07:49:47;;;;;;;7.65;5.90;;;;;;;2.95;100.00;96298.41;1221312;75;2925097;-70
2023/12/13 07:52:20;;;;;;;10.30;8.00;;;;;;;2.81;100.00;96293.66;1220831;75;2924109;-69
2023/12/13 07:54:53;;;;;;;8.40;6.95;;;;;;;2.97;100.00;96297.97;1222211;75;2921985;-70
2023/12/13 07:57:25;;;;;;;10.10;8.65;;;;;;;2.86;100.00;96284.19;1223292;75;2928732;-68
2023/12/13 07:59:58;;;;;;;10.05;7.90;;;;;;;2.96;100.00;96291.81;1222860;75;2950813;-73
2023/12/13 08:02:34;;;;;;;25.95;19.40;;;;;;;2.43;100.00;96307.75;1221639;75;2923795;-71
2023/12/13 08:05:07;;;;;;;21.75;16.95;;;;;;;2.26;100.00;96307.34;1223704;75;2919496;-73
2023/12/13 08:07:40;;;;;;;22.95;15.30;;;;;;;2.26;100.00;96313.50;1223580;75;2928332;-71
2023/12/13 08:10:13;;;;;;;24.90;18.30;;;;;;;2.21;100.00;96307.94;1223868;75;2926044;-70
2023/12/13 08:12:46;;;;;;;23.20;16.60;;;;;;;2.40;100.00;96308.66;1221209;75;2940871;-70
2023/12/13 08:15:19;;;;;;;22.00;14.95;;;;;;;2.48;100.00;96307.91;1221688;75;2951687;-66
2023/12/13 08:17:54;;;;;;;20.30;14.70;;;;;;;2.67;100.00;96305.91;1223608;75;2923862;-70
2023/12/13 08:20:29;;;;;;;19.50;14.05;;;;;;;2.55;100.00;96318.41;1223546;75;2930612;-69
2023/12/13 08:23:03;;;;;;;17.05;12.95;;;;;;;2.74;100.00;96318.31;1222773;75;2937270;-67
2023/12/13 08:25:38;;;;;;;14.75;11.75;;;;;;;2.61;100.00;96317.78;1206024;75;4342896;-70
2023/12/13 08:28:11;;;;;;;20.00;14.50;;;;;;;2.48;100.00;96324.13;1223130;75;2932310;-69
2023/12/13 08:30:43;;;;;;;16.20;13.10;;;;;;;2.80;100.00;96318.47;1223645;75;2920420;-69
2023/12/13 08:33:19;;;;;;;14.35;11.50;;;;;;;2.73;100.00;96317.56;1222787;75;2947257;-70
2023/12/13 08:35:53;;;;;;;15.10;12.85;;;;;;;2.97;100.00;96311.47;1223421;75;2918627;-71
2023/12/13 08:38:26;;;;;;;13.30;11.00;;;;;;;3.07;100.00;96304.81;1223173;75;2921876;-73
2023/12/13 08:40:58;;;;;;;14.75;11.65;;;;;;;2.83;100.00;96299.38;1222822;75;2920524;-70
2023/12/13 08:43:31;;;;;;;19.00;14.60;;;;;;;2.66;100.00;96296.28;1223193;75;2919355;-70
2023/12/13 08:46:04;;;;;;;18.35;14.60;;;;;;;2.68;100.00;96314.75;1224066;75;2921557;-69
2023/12/13 08:48:40;;;;;;;21.65;16.55;;;;;;;2.70;100.00;96321.19;1224089;75;2917661;-73
2023/12/13 08:51:12;;;;;;;17.00;14.15;;;;;;;2.90;100.00;96314.53;1224134;75;2920289;-72
2023/12/13 08:53:48;;;;;;;17.70;14.15;;;;;;;2.97;100.00;96316.88;1222419;75;2921953;-69
2023/12/13 08:56:22;;;;;;;15.05;12.30;;;;;;;3.13;100.00;96319.22;1221553;75;2930805;-71
2023/12/13 08:58:54;;;;;;;20.30;15.00;;;;;;;2.72;100.00;96309.94;1223557;75;2924913;-71
2023/12/13 09:01:28;;;;;;;16.90;13.40;;;;;;;3.00;100.00;96315.97;1222430;75;2918369;-72
2023/12/13 09:04:03;;;;;;;15.55;13.60;;;;;;;2.93;100.00;96313.59;1220907;75;2921258;-70
2023/12/13 09:06:36;;;;;;;15.60;12.30;;;;;;;2.92;100.00;96312.09;1224327;75;2924128;-71
2023/12/13 09:09:11;;;;;;;13.95;11.95;;;;;;;3.06;100.00;96308.00;1222802;75;2921781;-72
2023/12/13 09:11:44;;;;;;;12.20;10.65;;;;;;;3.22;100.00;96310.28;1223260;75;2910639;-69
2023/12/13 09:14:17;;;;;;;14.20;11.65;;;;;;;2.91;100.00;96303.25;1190768;75;5521023;-73
2023/12/13 09:16:50;;;;;;;18.70;15.50;;;;;;;2.65;100.00;96302.91;1222712;75;2945001;-69
2023/12/13 09:19:25;;;;;;;17.85;14.80;;;;;;;2.77;100.00;96291.16;1221950;75;2923212;-70
2023/12/13 09:21:58;;;;;;;16.35;13.35;;;;;;;3.05;100.00;96268.63;1219395;75;2926001;-70
2023/12/13 09:24:31;;;;;;;12.90;10.90;;;;;;;3.23;100.00;96273.22;1220288;75;2943240;-73
2023/12/13 09:27:07;;;;;;;10.00;8.75;;;;;;;3.32;100.00;96273.13;1223099;75;2924369;-69
2023/12/13 09:29:40;;;;;;;10.65;7.95;;;;;;;3.17;100.00;96284.63;1221564;75;2931406;-69
2023/12/13 09:32:13;;;;;;;12.55;9.70;;;;;;;3.16;100.00;96272.34;1220534;75;2931527;-70
2023/12/13 09:34:48;;;;;;;12.10;9.50;;;;;;;3.30;100.00;96273.59;1220880;75;2943792;-68
2023/12/13 09:37:21;;;;;;;;;;;;;;;3.40;100.00;96275.03;1168385;83;5296046;-71
2023/12/13 09:39:53;;;;;;;12.50;10.15;;;;;;;3.17;100.00;96264.97;1222676;75;2921839;-68
2023/12/13 09:42:27;;;;;;;12.75;9.15;;;;;;;3.35;100.00;96247.88;1221958;75;2928989;-72
2023/12/13 09:45:00;;;;;;;8.85;7.80;;;;;;;3.51;100.00;96250.16;1220850;75;2984483;-69
2023/12/13 09:47:34;;;;;;;10.00;7.85;;;;;;;3.45;100.00;96240.44;1224043;75;2917774;-72
2023/12/13 09:50:12;;;;;;;10.55;7.45;;;;;;;3.49;100.00;96230.19;1224184;75;2922235;-68
2023/12/13 09:52:45;;;;;;;9.75;7.85;;;;;;;3.32;100.00;96238.72;1222721;75;2933286;-72
2023/12/13 09:55:22;;;;;;;29.30;17.30;;;;;;;3.03;100.00;96244.00;1224337;75;2918999;-67
2023/12/13 09:57:55;;;;;;;32.70;17.60;;;;;;;3.15;100.00;96243.03;1223537;75;2931591;-69
2023/12/13 10:00:28;;;;;;;17.90;13.85;;;;;;;3.39;100.00;96249.19;1223561;75;2936067;-70
2023/12/13 10:03:01;;;;;;;16.30;11.95;;;;;;;3.49;100.00;96241.75;1223699;75;2926599;-72
2023/12/13 10:05:40;;;;;;;12.70;10.45;;;;;;;3.48;100.00;96225.97;1223609;75;2925728;-66
2023/12/13 10:08:13;;;;;;;21.10;16.20;;;;;;;3.20;100.00;96226.19;1223182;75;2916526;-70
2023/12/13 10:10:50;;;;;;;19.25;14.90;;;;;;;3.37;100.00;96219.16;1223374;75;2928922;-69
2023/12/13 10:13:25;;;;;;;19.30;13.85;;;;;;;3.18;100.00;96210.44;1222180;75;2925803;-73
2023/12/13 10:15:58;;;;;;;19.80;14.80;;;;;;;3.04;100.00;96203.00;1223773;75;2931412;-68
2023/12/13 10:18:33;;;;;;;19.50;14.95;;;;;;;3.07;100.00;96204.78;1223611;75;2921514;-69
2023/12/13 10:21:09;;;;;;;18.60;14.30;;;;;;;3.07;100.00;96206.75;1222658;75;2919080;-74
2023/12/13 10:23:44;;;;;;;17.60;13.65;;;;;;;3.04;100.00;96211.13;1223325;75;2940449;-71
2023/12/13 10:26:17;;;;;;;19.50;15.30;;;;;;;2.99;100.00;96217.91;1224181;75;2920317;-75
2023/12/13 10:28:50;;;;;;;18.30;14.00;;;;;;;3.22;100.00;96204.84;1224307;75;2918091;-70
2023/12/13 10:31:29;;;;;;;17.90;12.50;;;;;;;3.22;100.00;96215.66;1224616;75;2919300;-70
2023/12/13 10:34:02;;;;;;;25.10;17.50;;;;;;;2.85;100.00;96226.69;1224868;75;2924762;-72
2023/12/13 10:36:38;;;;;;;34.20;20.85;;;;;;;2.77;100.00;96220.88;1224545;75;2923071;-72
2023/12/13 10:39:13;;;;;;;28.20;21.25;;;;;;;2.93;100.00;96227.84;1223590;75;2917515;-70
2023/12/13 10:41:47;;;;;;;34.20;21.50;;;;;;;2.69;100.00;96230.53;1224055;75;2920154;-72
2023/12/13 10:44:25;;;;;;;26.75;19.60;;;;;;;2.72;100.00;96231.59;1223702;75;2924650;-70
2023/12/13 10:47:00;;;;;;;24.85;19.10;;;;;;;2.91;100.00;96238.38;1223039;75;2923850;-70
2023/12/13 10:49:34;;;;;;;24.35;18.60;;;;;;;2.74;100.00;96240.72;1222932;75;2931735;-69
2023/12/13 10:52:11;;;;;;;25.20;18.30;;;;;;;2.90;100.00;96247.69;1222265;75;2884804;-66
2023/12/13 10:54:46;;;;;;;20.30;16.60;;;;;;;2.94;100.00;96242.88;1223359;75;2918852;-69
2023/12/13 10:57:19;;;;;;;20.25;16.30;;;;;;;3.01;100.00;96235.59;1222694;75;2931161;-68
2023/12/13 10:59:53;;;;;;;20.10;16.35;;;;;;;2.89;100.00;96240.78;1222862;75;2928370;-71
2023/12/13 11:02:28;;;;;;;23.45;18.65;;;;;;;2.82;100.00;96235.72;1223025;75;2921796;-73
2023/12/13 11:05:01;;;;;;;26.50;18.20;;;;;;;2.85;100.00;96242.91;1222473;75;2930416;-68
2023/12/13 11:07:47;;;;;;;21.55;16.95;;;;;;;3.02;100.00;96248.69;1222689;75;2925097;-71
2023/12/13 11:10:22;;;;;;;19.40;14.55;;;;;;;3.07;100.00;96250.00;1222493;75;2923878;-66
2023/12/13 11:12:58;;;;;;;16.70;13.30;;;;;;;3.26;100.00;96245.97;1222757;75;2930557;-67
2023/12/13 11:15:31;;;;;;;18.35;14.65;;;;;;;2.95;100.00;96235.50;1220865;75;2984025;-71
2023/12/13 11:18:05;;;;;;;21.75;17.55;;;;;;;2.92;100.00;96234.47;1222499;75;2921343;-70
2023/12/13 11:20:51;;;;;;;22.30;17.70;;;;;;;3.17;100.00;96232.50;1133929;75;6287718;-72
2023/12/13 11:23:31;;;;;;;19.25;15.25;;;;;;;3.07;100.00;96237.22;1222568;75;2933082;-69
2023/12/13 11:26:04;;;;;;;16.40;13.50;;;;;;;3.09;100.00;96245.63;1224355;75;2915700;-68
2023/12/13 11:28:38;;;;;;;19.15;15.00;;;;;;;3.07;100.00;96239.19;1223822;75;2956411;-69
2023/12/13 11:31:14;;;;;;;14.50;12.35;;;;;;;3.20;100.00;96224.25;1222519;75;2918910;-72
2023/12/13 11:33:48;;;;;;;12.30;10.85;;;;;;;3.19;100.00;96227.41;1223578;75;2918249;-69
2023/12/13 11:36:25;;;;;;;14.45;11.75;;;;;;;3.16;100.00;96214.81;1223685;75;2926137;-68